Time;durP1;ratioP1;P1;durP2;ratioP2;P2;SDS_P1;SDS_P2;PMS_P1;PMS_P2;Temp;Humidity;BMP_temperature;BMP_pressure;BME280_temperature;BME280_humidity;BME280_pressure;Samples;Min_cycle;Max_cycle;Signal;HPM_P1;HPM_P2
2021/08/05 00:00:28;;;;;;;6.23;5.73;;;;;22.80;100056.00;;;;2069690;28;20214;-56
2021/08/05 00:01:29;;;;;;;6.93;6.33;;;;;22.80;100067.00;;;;2069792;28;20683;-56
2021/08/05 00:02:29;;;;;;;6.32;5.80;;;;;22.80;100064.00;;;;2069339;28;20254;-54
2021/08/05 00:03:30;;;;;;;6.57;5.97;;;;;22.80;100061.00;;;;2069371;28;20214;-56
2021/08/05 00:04:30;;;;;;;6.70;6.10;;;;;22.80;100057.00;;;;2070365;28;20269;-57
2021/08/05 00:05:31;;;;;;;6.67;6.07;;;;;22.80;100063.00;;;;2069241;28;20222;-55
2021/08/05 00:06:32;;;;;;;6.30;5.73;;;;;22.80;100061.00;;;;2061720;28;20215;-56
2021/08/05 00:07:32;;;;;;;6.90;6.30;;;;;22.80;100076.00;;;;2061215;28;20221;-57
2021/08/05 00:08:32;;;;;;;6.53;5.93;;;;;22.80;100062.00;;;;2065483;28;20206;-55
2021/08/05 00:09:33;;;;;;;6.73;6.13;;;;;22.80;100058.00;;;;2062163;28;20246;-54
2021/08/05 00:10:33;;;;;;;6.50;5.90;;;;;22.80;100068.00;;;;2069060;28;20219;-53
2021/08/05 00:11:35;;;;;;;6.10;5.60;;;;;22.80;100067.00;;;;2065847;28;20224;-55
2021/08/05 00:12:35;;;;;;;6.20;5.70;;;;;22.80;100059.00;;;;2063820;28;20215;-54
2021/08/05 00:13:35;;;;;;;6.20;5.70;;;;;22.80;100058.00;;;;2063739;28;20294;-56
2021/08/05 00:14:37;;;;;;;5.77;5.30;;;;;22.80;100062.00;;;;2062565;28;20352;-55
2021/08/05 00:15:37;;;;;;;5.78;5.28;;;;;22.80;100064.00;;;;2059164;28;20230;-55
2021/08/05 00:16:38;;;;;;;6.33;5.73;;;;;22.80;100059.00;;;;2065113;28;20223;-55
2021/08/05 00:17:38;;;;;;;6.00;5.50;;;;;22.80;100059.00;;;;2070511;28;20210;-56
2021/08/05 00:18:39;;;;;;;5.97;5.47;;;;;22.80;100058.00;;;;2070369;28;20222;-55
2021/08/05 00:19:39;;;;;;;6.37;5.73;;;;;22.80;100054.00;;;;2066553;28;20358;-56
2021/08/05 00:20:40;;;;;;;6.23;5.73;;;;;22.80;100047.00;;;;2062316;28;20211;-55
2021/08/05 00:21:40;;;;;;;6.57;5.97;;;;;22.80;100056.00;;;;2062731;28;20222;-55
2021/08/05 00:22:41;;;;;;;6.10;5.50;;;;;22.80;100055.00;;;;2062086;28;21004;-55
2021/08/05 00:23:41;;;;;;;7.17;6.00;;;;;22.80;100047.00;;;;2061736;28;20222;-55
2021/08/05 00:24:41;;;;;;;6.50;5.90;;;;;22.80;100058.00;;;;2059890;28;20844;-56
2021/08/05 00:25:42;;;;;;;6.47;5.87;;;;;22.80;100054.00;;;;2062054;28;20555;-56
2021/08/05 00:26:42;;;;;;;5.30;4.80;;;;;22.80;100047.00;;;;2061876;28;20233;-55
2021/08/05 00:27:42;;;;;;;5.47;5.03;;;;;22.80;100052.00;;;;2070159;28;20314;-54
2021/08/05 00:28:43;;;;;;;6.17;5.67;;;;;22.80;100053.00;;;;2070071;28;20206;-59
2021/08/05 00:29:43;;;;;;;6.23;5.63;;;;;22.80;100051.00;;;;2069894;28;20218;-57
2021/08/05 00:30:44;;;;;;;5.60;5.10;;;;;22.80;100049.00;;;;2070434;28;20297;-57
2021/08/05 00:31:44;;;;;;;5.83;5.33;;;;;22.80;100056.00;;;;2070359;28;20225;-57
2021/08/05 00:32:45;;;;;;;5.90;5.40;;;;;22.80;100058.00;;;;2071600;28;20259;-53
2021/08/05 00:33:45;;;;;;;5.40;5.00;;;;;22.80;100052.00;;;;2070741;28;20309;-57
2021/08/05 00:34:45;;;;;;;5.80;5.30;;;;;22.70;100055.00;;;;2072166;28;20218;-55
2021/08/05 00:35:46;;;;;;;5.30;4.80;;;;;22.80;100052.00;;;;2066167;28;20268;-56
2021/08/05 00:36:46;;;;;;;5.87;5.37;;;;;22.80;100052.00;;;;2063628;28;20338;-57
2021/08/05 00:37:47;;;;;;;5.33;4.83;;;;;22.80;100047.00;;;;2063652;28;20238;-56
2021/08/05 00:38:47;;;;;;;5.20;4.80;;;;;22.80;100025.00;;;;2063468;28;20238;-56
2021/08/05 00:39:47;;;;;;;5.83;5.33;;;;;22.80;100051.00;;;;2064233;28;20759;-56
2021/08/05 00:40:48;;;;;;;6.00;5.37;;;;;22.80;100045.00;;;;2065672;28;20888;-56
2021/08/05 00:41:49;;;;;;;6.00;5.50;;;;;22.80;100045.00;;;;2067075;28;20214;-53
2021/08/05 00:42:49;;;;;;;5.40;5.00;;;;;22.80;100042.00;;;;2068531;28;20512;-54
2021/08/05 00:43:50;;;;;;;5.30;4.80;;;;;22.80;100047.00;;;;2066299;28;20265;-54
2021/08/05 00:44:50;;;;;;;5.63;5.13;;;;;22.80;100045.00;;;;2062506;28;20557;-55
2021/08/05 00:45:51;;;;;;;5.00;4.60;;;;;22.80;100040.00;;;;2071015;28;20218;-56
2021/08/05 00:46:51;;;;;;;5.90;5.30;;;;;22.80;100039.00;;;;2072181;28;20225;-54
2021/08/05 00:47:51;;;;;;;5.13;4.73;;;;;22.70;100034.00;;;;2072058;28;20246;-56
2021/08/05 00:48:52;;;;;;;4.87;4.33;;;;;22.80;100037.00;;;;2071845;28;20222;-57
2021/08/05 00:49:52;;;;;;;5.00;4.50;;;;;22.80;100038.00;;;;2072282;28;20633;-57
2021/08/05 00:50:52;;;;;;;4.40;4.10;;;;;22.80;100039.00;;;;2071660;28;20251;-57
2021/08/05 00:51:53;;;;;;;4.30;4.00;;;;;22.80;100032.00;;;;2071339;28;20322;-55
2021/08/05 00:52:53;;;;;;;4.97;4.57;;;;;22.70;100035.00;;;;2071626;28;20222;-57
2021/08/05 00:53:53;;;;;;;5.27;4.87;;;;;22.70;100033.00;;;;2072089;28;20260;-54
2021/08/05 00:54:54;;;;;;;5.10;4.70;;;;;22.80;100031.00;;;;2072062;28;20233;-58
2021/08/05 00:55:54;;;;;;;5.03;4.60;;;;;22.80;100030.00;;;;2071874;28;20229;-56
2021/08/05 00:56:55;;;;;;;5.27;4.77;;;;;22.80;100024.00;;;;2072095;28;20223;-56
2021/08/05 00:57:56;;;;;;;4.87;4.43;;;;;22.80;100027.00;;;;2071464;28;20778;-55
2021/08/05 00:58:56;;;;;;;5.27;4.77;;;;;22.80;100027.00;;;;2071072;28;20218;-55
2021/08/05 00:59:57;;;;;;;4.90;4.50;;;;;22.80;100023.00;;;;2072042;28;20245;-54
2021/08/05 01:01:00;;;;;;;5.43;4.93;;;;;22.80;100016.00;;;;2070861;28;20606;-55
2021/08/05 01:02:13;;;;;;;5.05;4.65;;;;;22.80;100027.00;;;;2071495;28;20226;-55
2021/08/05 01:03:26;;;;;;;4.93;4.53;;;;;22.70;100018.00;;;;2071100;28;20297;-54
2021/08/05 01:04:26;;;;;;;4.65;4.35;;;;;22.80;100018.00;;;;2064513;28;20242;-54
2021/08/05 01:05:27;;;;;;;5.30;4.70;;;;;22.70;100014.00;;;;2063350;28;20552;-56
2021/08/05 01:06:42;;;;;;;5.32;4.90;;;;;22.70;100012.00;;;;2062136;28;20225;-53
2021/08/05 01:08:07;;;;;;;5.03;4.60;;;;;22.80;100014.00;;;;2077204;28;20216;-56
2021/08/05 01:09:13;;;;;;;4.95;4.50;;;;;22.80;100016.00;;;;2065088;28;20293;-56
2021/08/05 01:10:16;;;;;;;4.38;4.00;;;;;22.80;100021.00;;;;2055540;28;20215;-54
2021/08/05 01:11:20;;;;;;;4.63;4.22;;;;;22.80;100021.00;;;;2066338;28;20215;-58
2021/08/05 01:12:53;;;;;;;5.45;4.95;;;;;22.80;100019.00;;;;2070248;28;20232;-55
2021/08/05 01:13:58;;;;;;;5.10;4.70;;;;;22.80;100028.00;;;;2055606;28;20238;-54
2021/08/05 01:15:22;;;;;;;4.10;3.80;;;;;22.70;100021.00;;;;2054190;28;20231;-54
2021/08/05 01:16:25;;;;;;;4.93;4.40;;;;;22.80;100025.00;;;;2049178;28;20211;-55
2021/08/05 01:17:26;;;;;;;4.85;4.45;;;;;22.80;100023.00;;;;2063186;28;20211;-55
2021/08/05 01:18:29;;;;;;;4.87;4.37;;;;;22.70;100020.00;;;;2062804;28;20255;-55
2021/08/05 01:19:43;;;;;;;4.55;4.15;;;;;22.80;100019.00;;;;2063120;28;20211;-54
2021/08/05 01:20:43;;;;;;;4.63;4.22;;;;;22.80;100015.00;;;;2062715;28;20605;-54
2021/08/05 01:21:48;;;;;;;4.57;4.17;;;;;22.70;100019.00;;;;2062652;28;20230;-54
2021/08/05 01:22:59;;;;;;;4.65;4.25;;;;;22.70;100017.00;;;;2062901;28;20211;-56
2021/08/05 01:24:04;;;;;;;5.05;4.60;;;;;22.80;100021.00;;;;2063192;28;20218;-56
2021/08/05 01:25:12;;;;;;;5.57;4.90;;;;;22.80;100022.00;;;;2062561;28;20265;-56
2021/08/05 01:26:36;;;;;;;4.28;3.97;;;;;22.70;100019.00;;;;2056583;28;20857;-55
2021/08/05 01:27:36;;;;;;;5.72;4.70;;;;;22.70;100018.00;;;;2075687;28;20225;-56
2021/08/05 01:28:37;;;;;;;4.90;4.50;;;;;22.70;100016.00;;;;2068855;28;20606;-55
2021/08/05 01:29:38;;;;;;;4.80;4.40;;;;;22.70;100010.00;;;;2071231;28;20213;-56
2021/08/05 01:30:40;;;;;;;4.63;4.10;;;;;22.70;100011.00;;;;2066462;28;20203;-56
2021/08/05 01:31:43;;;;;;;4.53;4.22;;;;;22.80;100010.00;;;;2063564;28;20219;-55
2021/08/05 01:32:44;;;;;;;4.85;4.45;;;;;22.80;100005.00;;;;2069333;28;20226;-56
2021/08/05 01:33:46;;;;;;;5.00;4.60;;;;;22.70;100003.00;;;;2058281;28;20223;-56
2021/08/05 01:34:46;;;;;;;4.50;4.10;;;;;22.80;100009.00;;;;2062954;28;20759;-54
2021/08/05 01:35:49;;;;;;;4.40;4.00;;;;;22.80;100000.00;;;;2070554;28;20264;-55
2021/08/05 01:36:50;;;;;;;4.60;4.20;;;;;22.80;100002.00;;;;2066576;28;20207;-54
2021/08/05 01:37:50;;;;;;;4.63;4.23;;;;;22.60;99999.00;;;;2054818;28;20262;-55
2021/08/05 01:38:51;;;;;;;4.77;4.37;;;;;22.80;99992.00;;;;2062623;28;20252;-55
2021/08/05 01:39:51;;;;;;;4.30;4.00;;;;;22.70;99997.00;;;;2056315;28;20221;-56
2021/08/05 01:40:51;;;;;;;4.90;4.50;;;;;22.70;99990.00;;;;2054280;28;20218;-57
2021/08/05 01:41:52;;;;;;;4.03;3.73;;;;;22.70;99994.00;;;;2039689;28;20228;-55
2021/08/05 01:42:53;;;;;;;4.80;4.30;;;;;22.70;99995.00;;;;2054256;28;20568;-55
2021/08/05 01:43:54;;;;;;;4.35;4.00;;;;;22.80;100000.00;;;;2066583;28;20215;-56
2021/08/05 01:44:54;;;;;;;4.70;4.30;;;;;22.70;99993.00;;;;2062841;28;20218;-55
2021/08/05 01:45:55;;;;;;;4.33;4.03;;;;;22.70;99989.00;;;;2062851;28;20298;-54
2021/08/05 01:46:56;;;;;;;4.60;4.20;;;;;22.70;99984.00;;;;2062953;28;20226;-55
2021/08/05 01:47:56;;;;;;;4.20;3.85;;;;;22.70;99987.00;;;;2054926;28;20231;-55
2021/08/05 01:48:57;;;;;;;4.30;4.00;;;;;22.70;99971.00;;;;2062883;28;20365;-54
2021/08/05 01:49:57;;;;;;;3.80;3.50;;;;;22.70;99985.00;;;;2054865;28;20223;-55
2021/08/05 01:50:58;;;;;;;4.30;3.83;;;;;22.70;99984.00;;;;2054329;28;20790;-55
2021/08/05 01:51:59;;;;;;;4.53;4.13;;;;;22.70;99984.00;;;;2046885;28;20224;-56
2021/08/05 01:52:59;;;;;;;4.30;3.90;;;;;22.70;99985.00;;;;2064724;28;20626;-56
2021/08/05 01:54:00;;;;;;;4.60;4.20;;;;;22.70;99988.00;;;;2056648;28;20219;-56
2021/08/05 01:55:01;;;;;;;4.57;4.25;;;;;22.70;99983.00;;;;2055850;28;20790;-55
2021/08/05 01:56:01;;;;;;;4.10;3.80;;;;;22.70;99990.00;;;;2062680;28;20215;-56
2021/08/05 01:57:02;;;;;;;4.10;3.70;;;;;22.70;99987.00;;;;2058321;28;20432;-56
2021/08/05 01:58:03;;;;;;;4.47;4.18;;;;;22.70;99988.00;;;;2056429;28;20223;-56
2021/08/05 01:59:03;;;;;;;4.20;3.90;;;;;22.70;99991.00;;;;2058240;28;20211;-55
2021/08/05 02:00:05;;;;;;;3.80;3.50;;;;;22.70;99984.00;;;;2056880;28;20258;-56
2021/08/05 02:01:05;;;;;;;4.15;3.75;;;;;22.70;99985.00;;;;2057338;28;20270;-54
2021/08/05 02:02:07;;;;;;;4.63;4.23;;;;;22.70;99988.00;;;;2057171;28;20668;-53
2021/08/05 02:03:08;;;;;;;4.55;4.15;;;;;22.70;99981.00;;;;2057857;28;20273;-56
2021/08/05 02:04:11;;;;;;;5.00;4.50;;;;;22.70;99989.00;;;;2058080;28;20211;-56
2021/08/05 02:05:25;;;;;;;4.07;3.78;;;;;22.70;99983.00;;;;2065244;28;20218;-56
2021/08/05 02:06:26;;;;;;;4.43;4.13;;;;;22.70;99991.00;;;;2070547;28;20237;-57
2021/08/05 02:08:02;;;;;;;3.97;3.67;;;;;22.70;99984.00;;;;2062832;28;20627;-55
2021/08/05 02:09:06;;;;;;;4.10;3.80;;;;;22.70;99986.00;;;;2061044;28;20361;-56
2021/08/05 02:10:13;;;;;;;4.30;4.00;;;;;22.70;99986.00;;;;2064273;28;20687;-56
2021/08/05 02:11:13;;;;;;;4.68;4.28;;;;;22.70;99984.00;;;;2067435;28;20305;-56
2021/08/05 02:12:14;;;;;;;6.50;4.30;;;;;22.70;99984.00;;;;2057525;28;20273;-56
2021/08/05 02:13:30;;;;;;;3.97;3.67;;;;;22.70;99982.00;;;;2057615;28;20221;-55
2021/08/05 02:14:30;;;;;;;4.38;3.97;;;;;22.70;99982.00;;;;2048133;28;20315;-55
2021/08/05 02:15:31;;;;;;;3.90;3.60;;;;;22.70;99984.00;;;;2050449;28;20274;-56
2021/08/05 02:16:32;;;;;;;5.00;4.07;;;;;22.70;99986.00;;;;2068349;28;20222;-56
2021/08/05 02:17:35;;;;;;;4.03;3.73;;;;;22.70;99985.00;;;;2070472;28;20216;-56
2021/08/05 02:18:35;;;;;;;4.55;4.15;;;;;22.70;99982.00;;;;2070259;28;20356;-57
2021/08/05 02:19:35;;;;;;;3.63;3.27;;;;;22.70;99985.00;;;;2054420;28;20718;-57
2021/08/05 02:20:36;;;;;;;3.90;3.60;;;;;22.70;99990.00;;;;2058621;28;20295;-57
2021/08/05 02:21:36;;;;;;;4.57;4.17;;;;;22.70;99982.00;;;;2069954;28;20222;-57
2021/08/05 02:22:39;;;;;;;4.20;3.80;;;;;22.70;99981.00;;;;2070100;28;20602;-54
2021/08/05 02:23:39;;;;;;;4.35;4.05;;;;;22.70;99982.00;;;;2062120;28;20253;-55
2021/08/05 02:24:40;;;;;;;4.33;3.93;;;;;22.70;99979.00;;;;2070006;28;20218;-56
2021/08/05 02:25:40;;;;;;;4.33;3.97;;;;;22.70;99988.00;;;;2078241;28;20217;-55
2021/08/05 02:26:41;;;;;;;4.17;3.87;;;;;22.70;99968.00;;;;2069975;28;20210;-55
2021/08/05 02:27:41;;;;;;;4.47;4.10;;;;;22.70;99978.00;;;;2066705;28;20224;-54
2021/08/05 02:28:42;;;;;;;4.30;4.00;;;;;22.60;99974.00;;;;2081182;28;20218;-56
2021/08/05 02:29:42;;;;;;;4.20;3.80;;;;;22.60;99968.00;;;;2065159;28;20223;-57
2021/08/05 02:30:42;;;;;;;4.17;3.77;;;;;22.70;99975.00;;;;2064997;28;20211;-57
2021/08/05 02:31:43;;;;;;;4.17;3.73;;;;;22.70;99973.00;;;;2059954;28;20218;-55
2021/08/05 02:32:43;;;;;;;4.23;3.93;;;;;22.70;99975.00;;;;2054553;28;20306;-54
2021/08/05 02:33:43;;;;;;;4.10;3.70;;;;;22.70;99967.00;;;;2060647;28;20616;-56
2021/08/05 02:34:44;;;;;;;3.90;3.50;;;;;22.70;99962.00;;;;2062480;28;20257;-57
2021/08/05 02:35:44;;;;;;;4.30;3.90;;;;;22.70;99969.00;;;;2054474;28;20218;-56
2021/08/05 02:36:45;;;;;;;4.50;4.10;;;;;22.70;99966.00;;;;2060631;28;20282;-57
2021/08/05 02:37:45;;;;;;;4.63;4.23;;;;;22.70;99973.00;;;;2063272;28;20238;-55
2021/08/05 02:38:45;;;;;;;4.50;4.10;;;;;22.70;99970.00;;;;2065441;28;20246;-53
2021/08/05 02:39:46;;;;;;;4.10;3.80;;;;;22.70;99965.00;;;;2062599;28;20215;-56
2021/08/05 02:40:47;;;;;;;4.40;4.00;;;;;22.70;99914.00;;;;2063983;28;20211;-55
2021/08/05 02:41:48;;;;;;;3.53;3.30;;;;;22.60;99968.00;;;;2062555;28;20794;-54
2021/08/05 02:42:48;;;;;;;4.13;3.83;;;;;22.70;99967.00;;;;2056608;28;20314;-54
2021/08/05 02:43:49;;;;;;;3.90;3.60;;;;;22.70;99973.00;;;;2062686;28;20215;-54
2021/08/05 02:44:49;;;;;;;3.73;3.43;;;;;22.70;99967.00;;;;2062600;28;20211;-55
2021/08/05 02:45:50;;;;;;;3.90;3.60;;;;;22.70;99971.00;;;;2054377;28;20215;-53
2021/08/05 02:46:50;;;;;;;4.87;4.47;;;;;22.60;99962.00;;;;2062650;28;20222;-55
2021/08/05 02:47:50;;;;;;;4.67;4.30;;;;;22.60;99964.00;;;;2065042;28;20233;-55
2021/08/05 02:48:51;;;;;;;4.07;3.77;;;;;22.70;99969.00;;;;2046597;28;20295;-54
2021/08/05 02:49:53;;;;;;;4.73;3.73;;;;;22.70;99972.00;;;;2057170;28;20258;-54
2021/08/05 02:50:54;;;;;;;4.30;3.90;;;;;22.70;99967.00;;;;2067664;28;20236;-55
2021/08/05 02:51:54;;;;;;;4.07;3.70;;;;;22.70;99968.00;;;;2062496;28;20257;-55
2021/08/05 02:52:55;;;;;;;4.47;4.07;;;;;22.70;99973.00;;;;2078491;28;20244;-55
2021/08/05 02:53:56;;;;;;;3.90;3.60;;;;;22.70;99975.00;;;;2074647;28;20213;-55
2021/08/05 02:54:56;;;;;;;6.07;3.90;;;;;22.70;99968.00;;;;2062491;28;20234;-55
2021/08/05 02:55:56;;;;;;;4.93;4.53;;;;;22.70;99969.00;;;;2067149;28;20218;-56
2021/08/05 02:56:57;;;;;;;4.00;3.70;;;;;22.70;99968.00;;;;2066324;28;20229;-55
2021/08/05 02:57:57;;;;;;;3.93;3.63;;;;;22.70;99961.00;;;;2070101;28;20228;-55
2021/08/05 02:58:58;;;;;;;4.00;3.70;;;;;22.70;99981.00;;;;2062898;28;20215;-55
2021/08/05 02:59:58;;;;;;;4.17;3.87;;;;;22.60;99969.00;;;;2061839;28;20704;-55
2021/08/05 03:00:58;;;;;;;4.33;3.93;;;;;22.70;99967.00;;;;2053685;28;20731;-57
2021/08/05 03:01:59;;;;;;;4.53;4.17;;;;;22.70;99968.00;;;;2045986;28;20562;-56
2021/08/05 03:02:59;;;;;;;4.20;3.90;;;;;22.70;99973.00;;;;2061967;28;20215;-56
2021/08/05 03:04:00;;;;;;;4.40;4.10;;;;;22.70;99982.00;;;;2069851;28;20515;-57
2021/08/05 03:05:01;;;;;;;4.13;3.83;;;;;22.70;99972.00;;;;2065110;28;20221;-55
2021/08/05 03:06:01;;;;;;;3.90;3.60;;;;;22.70;99975.00;;;;2059450;28;20719;-57
2021/08/05 03:07:02;;;;;;;4.10;3.80;;;;;22.70;99967.00;;;;2062100;28;20462;-57
2021/08/05 03:08:02;;;;;;;4.60;4.20;;;;;22.70;99972.00;;;;2062178;28;20211;-57
2021/08/05 03:09:02;;;;;;;5.07;4.67;;;;;22.60;99966.00;;;;2070450;28;20224;-54
2021/08/05 03:10:04;;;;;;;4.13;3.73;;;;;22.60;99968.00;;;;2055038;28;20226;-55
2021/08/05 03:11:04;;;;;;;4.45;4.05;;;;;22.60;99964.00;;;;2059084;28;20301;-57
2021/08/05 03:12:05;;;;;;;4.20;3.70;;;;;22.60;99968.00;;;;2063493;28;20228;-54
2021/08/05 03:13:05;;;;;;;4.70;4.30;;;;;22.60;99965.00;;;;2060940;28;20219;-60
2021/08/05 03:14:05;;;;;;;4.80;3.90;;;;;22.60;99964.00;;;;2059258;28;20305;-53
2021/08/05 03:15:06;;;;;;;4.30;4.00;;;;;22.60;99966.00;;;;2055024;28;20212;-56
2021/08/05 03:16:07;;;;;;;4.47;4.07;;;;;22.60;99965.00;;;;2058547;28;20242;-55
2021/08/05 03:17:07;;;;;;;4.93;4.53;;;;;22.60;99970.00;;;;2062233;28;20579;-57
2021/08/05 03:18:07;;;;;;;4.63;4.23;;;;;22.60;99956.00;;;;2062584;28;20249;-56
2021/08/05 03:19:08;;;;;;;4.40;4.10;;;;;22.70;99963.00;;;;2055234;28;20212;-57
2021/08/05 03:20:09;;;;;;;4.60;4.30;;;;;22.70;99968.00;;;;2057967;28;20766;-57
2021/08/05 03:21:09;;;;;;;4.45;4.05;;;;;22.70;99960.00;;;;2054601;28;20238;-56
2021/08/05 03:22:10;;;;;;;4.73;4.33;;;;;22.70;99956.00;;;;2058413;28;20276;-57
2021/08/05 03:23:10;;;;;;;5.00;3.67;;;;;22.70;99954.00;;;;2055273;28;20220;-57
2021/08/05 03:24:10;;;;;;;4.67;4.37;;;;;22.60;99952.00;;;;2059982;28;20795;-57
2021/08/05 03:25:11;;;;;;;4.97;4.57;;;;;22.60;99958.00;;;;2067161;28;20215;-57
2021/08/05 03:26:11;;;;;;;4.70;4.30;;;;;22.60;99956.00;;;;2063344;28;20215;-55
2021/08/05 03:27:11;;;;;;;4.53;4.13;;;;;22.60;99956.00;;;;2066225;28;20285;-56
2021/08/05 03:28:12;;;;;;;4.73;4.40;;;;;22.60;99959.00;;;;2067016;28;20718;-56
2021/08/05 03:29:12;;;;;;;4.47;4.17;;;;;22.60;99952.00;;;;2063258;28;20258;-56
2021/08/05 03:30:12;;;;;;;4.93;4.53;;;;;22.50;99955.00;;;;2066164;28;20211;-56
2021/08/05 03:31:13;;;;;;;4.67;4.27;;;;;22.60;99914.00;;;;2066972;28;20218;-56
2021/08/05 03:32:13;;;;;;;4.70;4.30;;;;;22.60;99953.00;;;;2063499;28;20687;-53
2021/08/05 03:33:13;;;;;;;4.30;4.00;;;;;22.60;99942.00;;;;2065908;28;20211;-55
2021/08/05 03:34:14;;;;;;;4.27;3.87;;;;;22.60;99950.00;;;;2066870;28;20309;-56
2021/08/05 03:35:14;;;;;;;4.33;3.93;;;;;22.60;99945.00;;;;2060023;28;20219;-56
2021/08/05 03:36:15;;;;;;;5.87;3.97;;;;;22.60;99943.00;;;;2058031;28;20219;-55
2021/08/05 03:37:15;;;;;;;4.17;3.80;;;;;22.50;99941.00;;;;2055796;28;20215;-55
2021/08/05 03:38:15;;;;;;;5.13;3.87;;;;;22.60;99946.00;;;;2057700;28;20314;-54
2021/08/05 03:39:16;;;;;;;4.90;4.50;;;;;22.60;99948.00;;;;2055665;28;20223;-55
2021/08/05 03:40:16;;;;;;;4.17;3.87;;;;;22.60;99941.00;;;;2060305;28;20219;-56
2021/08/05 03:41:16;;;;;;;4.37;3.77;;;;;22.60;99944.00;;;;2066715;28;20221;-55
2021/08/05 03:42:17;;;;;;;4.00;3.70;;;;;22.60;99942.00;;;;2063595;28;20218;-55
2021/08/05 03:43:17;;;;;;;4.40;4.00;;;;;22.60;99952.00;;;;2060790;28;20222;-56
2021/08/05 03:44:17;;;;;;;4.30;4.00;;;;;22.60;99949.00;;;;2058982;28;20351;-56
2021/08/05 03:45:18;;;;;;;4.33;4.03;;;;;22.60;99932.00;;;;2054937;28;20270;-54
2021/08/05 03:46:18;;;;;;;5.03;3.67;;;;;22.60;99935.00;;;;2058920;28;20211;-55
2021/08/05 03:47:18;;;;;;;3.70;3.40;;;;;22.60;99946.00;;;;2054616;28;20226;-56
2021/08/05 03:48:19;;;;;;;4.53;4.13;;;;;22.60;99945.00;;;;2065717;28;20210;-55
2021/08/05 03:49:19;;;;;;;4.77;4.43;;;;;22.60;99943.00;;;;2063875;28;20269;-56
2021/08/05 03:50:20;;;;;;;4.07;3.77;;;;;22.70;99943.00;;;;2061250;28;20623;-55
2021/08/05 03:51:20;;;;;;;4.30;4.00;;;;;22.60;99940.00;;;;2056216;28;20200;-55
2021/08/05 03:52:20;;;;;;;4.07;3.77;;;;;22.60;99939.00;;;;2057185;28;20318;-56
2021/08/05 03:53:21;;;;;;;4.60;4.20;;;;;22.60;99940.00;;;;2056381;28;20207;-56
2021/08/05 03:54:21;;;;;;;4.50;4.00;;;;;22.60;99936.00;;;;2057006;28;20211;-56
2021/08/05 03:55:21;;;;;;;5.00;4.60;;;;;22.60;99944.00;;;;2062937;28;20211;-56
2021/08/05 03:56:22;;;;;;;3.40;3.17;;;;;22.60;99887.00;;;;2065734;28;20306;-56
2021/08/05 03:57:22;;;;;;;3.80;3.40;;;;;22.60;99928.00;;;;2062883;28;21005;-54
2021/08/05 03:58:23;;;;;;;4.13;3.83;;;;;22.60;99933.00;;;;2054084;28;20232;-55
2021/08/05 03:59:23;;;;;;;4.27;3.87;;;;;22.60;99932.00;;;;2057987;28;20651;-56
2021/08/05 04:00:23;;;;;;;9.20;4.33;;;;;22.60;99939.00;;;;2054120;28;20277;-56
2021/08/05 04:01:24;;;;;;;7.47;4.20;;;;;22.60;99936.00;;;;2058818;28;20213;-56
2021/08/05 04:02:24;;;;;;;4.40;4.00;;;;;22.60;99937.00;;;;2054577;28;20644;-56
2021/08/05 04:03:24;;;;;;;4.13;3.83;;;;;22.60;99940.00;;;;2058543;28;20265;-54
2021/08/05 04:04:25;;;;;;;3.63;3.37;;;;;22.60;99927.00;;;;2054307;28;20334;-55
2021/08/05 04:05:25;;;;;;;4.17;3.87;;;;;22.60;99947.00;;;;2061504;28;20222;-55
2021/08/05 04:06:25;;;;;;;4.27;3.93;;;;;22.60;99937.00;;;;2055695;28;20681;-57
2021/08/05 04:07:26;;;;;;;3.80;3.50;;;;;22.60;99933.00;;;;2058747;28;20228;-57
2021/08/05 04:08:26;;;;;;;3.67;3.37;;;;;22.60;99924.00;;;;2055660;28;20310;-57
2021/08/05 04:09:27;;;;;;;4.30;3.90;;;;;22.60;99924.00;;;;2059907;28;20226;-54
2021/08/05 04:10:27;;;;;;;4.00;3.60;;;;;22.60;99930.00;;;;2061990;28;20222;-53
2021/08/05 04:11:27;;;;;;;4.67;4.10;;;;;22.60;99930.00;;;;2061151;28;20241;-57
2021/08/05 04:12:28;;;;;;;4.10;3.80;;;;;22.60;99921.00;;;;2058393;28;20834;-54
2021/08/05 04:13:28;;;;;;;4.33;3.93;;;;;22.60;99929.00;;;;2057415;28;20645;-55
2021/08/05 04:14:28;;;;;;;4.40;4.10;;;;;22.60;99927.00;;;;2057436;28;20211;-54
2021/08/05 04:15:29;;;;;;;3.67;3.37;;;;;22.60;99929.00;;;;2057888;28;20314;-54
2021/08/05 04:16:29;;;;;;;4.37;3.90;;;;;22.60;99926.00;;;;2057826;28;21215;-55
2021/08/05 04:17:29;;;;;;;4.33;3.93;;;;;22.60;99931.00;;;;2057829;28;20363;-55
2021/08/05 04:18:30;;;;;;;4.53;4.13;;;;;22.60;99933.00;;;;2057350;28;20273;-54
2021/08/05 04:19:30;;;;;;;4.43;4.07;;;;;22.60;99933.00;;;;2057789;28;20222;-54
2021/08/05 04:20:30;;;;;;;3.73;3.43;;;;;22.60;99936.00;;;;2057528;28;20290;-54
2021/08/05 04:21:31;;;;;;;4.00;3.70;;;;;22.60;99937.00;;;;2057255;28;20457;-54
2021/08/05 04:22:31;;;;;;;4.13;3.83;;;;;22.60;99937.00;;;;2057314;28;20214;-54
2021/08/05 04:23:31;;;;;;;4.43;4.13;;;;;22.60;99939.00;;;;2057471;28;20732;-55
2021/08/05 04:24:32;;;;;;;4.90;4.50;;;;;22.60;99932.00;;;;2055107;28;20282;-55
2021/08/05 04:25:32;;;;;;;3.90;3.60;;;;;22.60;99939.00;;;;2058192;28;20254;-56
2021/08/05 04:26:32;;;;;;;4.50;4.13;;;;;22.60;99935.00;;;;2058245;28;20239;-57
2021/08/05 04:27:33;;;;;;;3.80;3.60;;;;;22.60;99939.00;;;;2058104;28;20234;-55
2021/08/05 04:28:33;;;;;;;3.70;3.40;;;;;22.60;99936.00;;;;2058404;28;20219;-54
2021/08/05 04:29:34;;;;;;;4.23;3.80;;;;;22.60;99936.00;;;;2058102;28;20212;-54
2021/08/05 04:30:34;;;;;;;5.10;3.90;;;;;22.60;99934.00;;;;2059734;28;20246;-55
2021/08/05 04:31:35;;;;;;;4.00;3.70;;;;;22.60;99929.00;;;;2064944;28;20241;-56
2021/08/05 04:32:35;;;;;;;4.23;3.93;;;;;22.60;99935.00;;;;2061064;28;20657;-56
2021/08/05 04:33:36;;;;;;;4.10;3.80;;;;;22.60;99938.00;;;;2068164;28;20205;-55
2021/08/05 04:34:36;;;;;;;4.53;4.13;;;;;22.60;99929.00;;;;2061922;28;20207;-55
2021/08/05 04:35:36;;;;;;;9.10;3.70;;;;;22.60;99939.00;;;;2057713;28;20215;-56
2021/08/05 04:36:37;;;;;;;3.70;3.40;;;;;22.50;99936.00;;;;2058517;28;20258;-54
2021/08/05 04:37:48;;;;;;;3.97;3.60;;;;;22.60;99935.00;;;;2057828;28;20274;-53
2021/08/05 04:38:48;;;;;;;4.05;3.75;;;;;22.60;99930.00;;;;2067916;28;20222;-55
2021/08/05 04:39:49;;;;;;;3.70;3.40;;;;;22.60;99926.00;;;;2063366;28;20804;-59
2021/08/05 04:40:49;;;;;;;4.33;3.90;;;;;22.60;99928.00;;;;2064846;28;20305;-58
2021/08/05 04:41:49;;;;;;;4.00;3.70;;;;;22.60;99923.00;;;;2066036;28;20206;-55
2021/08/05 04:42:50;;;;;;;4.63;3.87;;;;;22.60;99925.00;;;;2065499;28;20210;-54
2021/08/05 04:43:51;;;;;;;4.27;3.87;;;;;22.60;99927.00;;;;2064990;28;20676;-56
2021/08/05 04:44:52;;;;;;;4.38;3.90;;;;;22.60;99919.00;;;;2064160;28;20218;-55
2021/08/05 04:45:52;;;;;;;4.30;3.87;;;;;22.60;99921.00;;;;2071497;28;21104;-55
2021/08/05 04:46:52;;;;;;;3.90;3.60;;;;;22.60;99923.00;;;;2064032;28;20309;-54
2021/08/05 04:48:00;;;;;;;3.87;3.57;;;;;22.60;99923.00;;;;2064244;28;20257;-56
2021/08/05 04:49:01;;;;;;;4.20;3.80;;;;;22.60;99925.00;;;;2067450;28;20273;-55
2021/08/05 04:50:01;;;;;;;4.07;3.77;;;;;22.60;99926.00;;;;2071855;28;20210;-57
2021/08/05 04:51:01;;;;;;;4.00;3.63;;;;;22.60;99928.00;;;;2067362;28;20649;-57
2021/08/05 04:52:03;;;;;;;4.30;4.00;;;;;22.60;99918.00;;;;2071598;28;20218;-54
2021/08/05 04:53:03;;;;;;;4.35;4.00;;;;;22.60;99921.00;;;;2069552;28;20309;-54
2021/08/05 04:54:04;;;;;;;4.10;3.80;;;;;22.60;99921.00;;;;2071515;28;20224;-54
2021/08/05 04:55:05;;;;;;;4.10;3.80;;;;;22.60;99923.00;;;;2066914;28;20497;-55
2021/08/05 04:56:05;;;;;;;4.30;3.90;;;;;22.60;99921.00;;;;2061542;28;20302;-53
2021/08/05 04:57:05;;;;;;;4.60;4.00;;;;;22.70;99919.00;;;;2063160;28;20771;-55
2021/08/05 04:58:06;;;;;;;3.93;3.63;;;;;22.70;99917.00;;;;2063195;28;20215;-56
2021/08/05 04:59:07;;;;;;;3.97;3.67;;;;;22.70;99914.00;;;;2061763;28;20210;-54
2021/08/05 05:00:07;;;;;;;4.03;3.73;;;;;22.70;99916.00;;;;2064359;28;20885;-54
2021/08/05 05:01:08;;;;;;;4.20;3.80;;;;;22.70;99922.00;;;;2067671;28;20789;-56
2021/08/05 05:02:08;;;;;;;3.50;3.20;;;;;22.80;99904.00;;;;2071070;28;20453;-56
2021/08/05 05:03:09;;;;;;;4.33;3.90;;;;;22.80;99916.00;;;;2070806;28;20206;-54
2021/08/05 05:04:10;;;;;;;3.60;3.30;;;;;22.80;99917.00;;;;2063317;28;20630;-56
2021/08/05 05:05:11;;;;;;;3.80;3.50;;;;;22.70;99916.00;;;;2063079;28;20246;-56
2021/08/05 05:06:11;;;;;;;4.40;4.00;;;;;22.70;99915.00;;;;2063036;28;20258;-55